createdAt,value
2023-05-01T00:00:07.937Z,953.6059
2023-05-01T00:01:09.814Z,953.5953
2023-05-01T00:02:11.776Z,953.5871
2023-05-01T00:03:13.764Z,953.5806
2023-05-01T00:04:15.824Z,953.5706
2023-05-01T00:05:17.737Z,953.5600
2023-05-01T00:06:19.647Z,953.5624
2023-05-01T00:07:21.514Z,953.5618
2023-05-01T00:08:23.385Z,953.5511
2023-05-01T00:09:25.256Z,953.5441
2023-05-01T00:10:27.132Z,953.5377
2023-05-01T00:11:29.331Z,953.5182
2023-05-01T00:12:31.224Z,953.5082
2023-05-01T00:13:33.081Z,953.5029
2023-05-01T00:14:34.963Z,953.4947
2023-05-01T00:15:36.841Z,953.4824
2023-05-01T00:16:38.780Z,953.4800
2023-05-01T00:17:40.713Z,953.4841
2023-05-01T00:18:42.562Z,953.4882
2023-05-01T00:19:44.705Z,953.4935
2023-05-01T00:20:46.566Z,953.4818
2023-05-01T00:21:48.619Z,953.4724
2023-05-01T00:22:50.544Z,953.4665
2023-05-01T00:23:52.401Z,953.4594
2023-05-01T00:24:54.809Z,953.4529
2023-05-01T00:25:56.716Z,953.4500
2023-05-01T00:26:58.585Z,953.4453
2023-05-01T00:28:00.442Z,953.4471
2023-05-01T00:29:02.568Z,953.4424
2023-05-01T00:30:04.452Z,953.4429
2023-05-01T00:31:06.307Z,953.4412
2023-05-01T00:32:08.254Z,953.4412
2023-05-01T00:33:10.314Z,953.4447
2023-05-01T00:34:12.361Z,953.4482
2023-05-01T00:35:14.232Z,953.4453
2023-05-01T00:36:16.128Z,953.4388
2023-05-01T00:37:17.991Z,953.4347
2023-05-01T00:38:19.906Z,953.4353
2023-05-01T00:39:21.761Z,953.4359
2023-05-01T00:40:23.629Z,953.4341
2023-05-01T00:41:25.539Z,953.4359
2023-05-01T00:42:27.406Z,953.4359
2023-05-01T00:43:29.272Z,953.4400
2023-05-01T00:44:31.173Z,953.4429
2023-05-01T00:45:33.059Z,953.4500
2023-05-01T00:46:35.025Z,953.4547
2023-05-01T00:47:37.012Z,953.4589
2023-05-01T00:48:38.992Z,953.4459
2023-05-01T00:49:40.881Z,953.4435
2023-05-01T00:50:42.759Z,953.4394
2023-05-01T00:51:44.874Z,953.4353
2023-05-01T00:52:46.779Z,953.4335
2023-05-01T00:53:48.624Z,953.4253
2023-05-01T00:54:50.494Z,953.4253
2023-05-01T00:55:52.392Z,953.4306
2023-05-01T00:56:54.261Z,953.4276
2023-05-01T00:57:56.166Z,953.4224
2023-05-01T00:58:58.245Z,953.4235
2023-05-01T01:00:00.210Z,953.4211
2023-05-01T01:01:02.121Z,953.4100
2023-05-01T01:02:04.021Z,953.4053
2023-05-01T01:03:05.943Z,953.3953
2023-05-01T01:04:07.854Z,953.3936
2023-05-01T01:05:09.742Z,953.3965
2023-05-01T01:06:12.629Z,953.3924
2023-05-01T01:08:13.664Z,953.3920
2023-05-01T01:08:13.664Z,953.3900
2023-05-01T01:09:15.703Z,953.4000
2023-05-01T01:10:17.600Z,953.3894
2023-05-01T01:11:19.457Z,953.3765
2023-05-01T01:12:21.338Z,953.3765
2023-05-01T01:13:23.241Z,953.3588
2023-05-01T01:14:25.161Z,953.3517
2023-05-01T01:15:27.018Z,953.3359
2023-05-01T01:16:28.923Z,953.3412
2023-05-01T01:17:30.851Z,953.3383
2023-05-01T01:18:32.684Z,953.3400
2023-05-01T01:19:34.830Z,953.3459
2023-05-01T01:20:36.677Z,953.3412
2023-05-01T01:21:38.579Z,953.3383
2023-05-01T01:22:40.442Z,953.3418
2023-05-01T01:23:42.340Z,953.3342
2023-05-01T01:24:44.192Z,953.3324
2023-05-01T01:25:46.076Z,953.3312
2023-05-01T01:26:47.954Z,953.3353
2023-05-01T01:27:49.854Z,953.3265
2023-05-01T01:28:51.761Z,953.3318
2023-05-01T01:29:53.794Z,953.3206
2023-05-01T01:30:55.773Z,953.3242
2023-05-01T01:31:57.641Z,953.3324
2023-05-01T01:32:59.627Z,953.3188
2023-05-01T01:34:01.478Z,953.3242
2023-05-01T01:35:03.382Z,953.3247
2023-05-01T01:36:05.238Z,953.3212
2023-05-01T01:37:07.213Z,953.3135
2023-05-01T01:38:09.062Z,953.3153
2023-05-01T01:39:10.997Z,953.3153
2023-05-01T01:40:12.841Z,953.3171
2023-05-01T01:41:14.760Z,953.3147
2023-05-01T01:42:16.644Z,953.3153
2023-05-01T01:43:18.573Z,953.3224
2023-05-01T01:44:20.628Z,953.3212
2023-05-01T01:45:22.513Z,953.3253
2023-05-01T01:46:24.466Z,953.3282
2023-05-01T01:47:26.338Z,953.3253
2023-05-01T01:48:28.255Z,953.3235
2023-05-01T01:49:30.133Z,953.3188
2023-05-01T01:50:32.012Z,953.3247
2023-05-01T01:51:33.891Z,953.3165
2023-05-01T01:52:35.775Z,953.3135
2023-05-01T01:53:37.651Z,953.3259
2023-05-01T01:54:39.524Z,953.3300
2023-05-01T01:55:41.407Z,953.3289
2023-05-01T01:56:43.268Z,953.3294
2023-05-01T01:57:45.147Z,953.3324
2023-05-01T01:58:47.042Z,953.3371
2023-05-01T01:59:48.934Z,953.3306
2023-05-01T02:00:50.791Z,953.3153
2023-05-01T02:01:52.723Z,953.3058
2023-05-01T02:02:54.668Z,953.3071
2023-05-01T02:03:56.640Z,953.2964
2023-05-01T02:04:58.548Z,953.2830
2023-05-01T02:06:00.622Z,953.2673
2023-05-01T02:07:02.513Z,953.2582
2023-05-01T02:08:04.401Z,953.2571
2023-05-01T02:09:06.282Z,953.2547
2023-05-01T02:10:08.162Z,953.2411
2023-05-01T02:11:10.060Z,953.2494
2023-05-01T02:12:11.961Z,953.2424
2023-05-01T02:13:13.862Z,953.2406
2023-05-01T02:14:15.765Z,953.2441
2023-05-01T02:15:17.639Z,953.2411
2023-05-01T02:16:19.536Z,953.2441
2023-05-01T02:17:21.471Z,953.2435
2023-05-01T02:18:23.448Z,953.2329
2023-05-01T02:19:25.356Z,953.2294
2023-05-01T02:20:27.216Z,953.2224
2023-05-01T02:21:29.140Z,953.2229
2023-05-01T02:22:30.991Z,953.2194
2023-05-01T02:23:32.869Z,953.2123
2023-05-01T02:24:34.765Z,953.2177
2023-05-01T02:25:36.640Z,953.2083
2023-05-01T02:26:38.509Z,953.2112
2023-05-01T02:27:40.378Z,953.2136
2023-05-01T02:28:42.284Z,953.2170
2023-05-01T02:29:44.156Z,953.2335
2023-05-01T02:30:46.042Z,953.2388
2023-05-01T02:31:48.197Z,953.2358
2023-05-01T02:32:50.163Z,953.2300
2023-05-01T02:33:52.030Z,953.2241
2023-05-01T02:34:53.929Z,953.2182
2023-05-01T02:35:55.818Z,953.2053
2023-05-01T02:36:57.744Z,953.1942
2023-05-01T02:37:59.641Z,953.1859
2023-05-01T02:39:01.552Z,953.1676
2023-05-01T02:40:03.464Z,953.1594
2023-05-01T02:41:05.324Z,953.1564
2023-05-01T02:42:07.194Z,953.1459
2023-05-01T02:43:09.154Z,953.1506
2023-05-01T02:44:11.025Z,953.1483
2023-05-01T02:45:12.924Z,953.1312
2023-05-01T02:46:14.835Z,953.1376
2023-05-01T02:47:16.751Z,953.1265
2023-05-01T02:48:18.661Z,953.1135
2023-05-01T02:49:20.825Z,953.1094
2023-05-01T02:50:22.693Z,953.1024
2023-05-01T02:51:24.586Z,953.0936
2023-05-01T02:52:26.526Z,953.0865
2023-05-01T02:53:28.438Z,953.0794
2023-05-01T02:54:30.371Z,953.0688
2023-05-01T02:55:32.284Z,953.0800
2023-05-01T02:56:34.272Z,953.0776
2023-05-01T02:57:36.181Z,953.0771
2023-05-01T02:58:38.127Z,953.0818
2023-05-01T02:59:40.081Z,953.0765
2023-05-01T03:00:42.011Z,953.0742
2023-05-01T03:01:44.333Z,953.0688
2023-05-01T03:02:46.477Z,953.0659
2023-05-01T03:03:48.424Z,953.0665
2023-05-01T03:04:50.316Z,953.0718
2023-05-01T03:05:52.219Z,953.0853
2023-05-01T03:06:54.229Z,953.0982
2023-05-01T03:07:56.162Z,953.1176
2023-05-01T03:08:58.126Z,953.1176
2023-05-01T03:10:00.030Z,953.1053
2023-05-01T03:11:01.935Z,953.0959
2023-05-01T03:12:03.870Z,953.0741
2023-05-01T03:13:05.753Z,953.0529
2023-05-01T03:14:07.691Z,953.0511
2023-05-01T03:15:09.591Z,953.0347
2023-05-01T03:16:11.596Z,953.0218
2023-05-01T03:17:13.568Z,953.0182
2023-05-01T03:18:15.486Z,953.0242
2023-05-01T03:19:17.546Z,953.0259
2023-05-01T03:20:19.489Z,953.0359
2023-05-01T03:21:21.380Z,953.0318
2023-05-01T03:22:23.312Z,953.0370
2023-05-01T03:23:25.205Z,953.0417
2023-05-01T03:24:27.116Z,953.0429
2023-05-01T03:25:29.022Z,953.0488
2023-05-01T03:26:30.938Z,953.0511
2023-05-01T03:27:32.847Z,953.0382
2023-05-01T03:28:34.793Z,953.0353
2023-05-01T03:29:36.725Z,953.0283
2023-05-01T03:30:38.648Z,953.0294
2023-05-01T03:31:40.609Z,953.0241
2023-05-01T03:32:42.528Z,953.0159
2023-05-01T03:33:44.482Z,953.0018
2023-05-01T03:34:46.687Z,953.0012
2023-05-01T03:35:48.732Z,952.9988
2023-05-01T03:36:50.688Z,952.9888
2023-05-01T03:37:52.579Z,952.9841
2023-05-01T03:38:54.524Z,952.9747
2023-05-01T03:39:56.701Z,952.9636
2023-05-01T03:40:58.741Z,952.9576
2023-05-01T03:42:00.697Z,952.9547
2023-05-01T03:43:02.594Z,952.9606
2023-05-01T03:44:04.515Z,952.9659
2023-05-01T03:45:06.422Z,952.9700
2023-05-01T03:46:08.397Z,952.9776
2023-05-01T03:47:10.299Z,952.9824
2023-05-01T03:48:12.342Z,952.9894
2023-05-01T03:49:14.365Z,952.9871
2023-05-01T03:50:16.284Z,952.9800
2023-05-01T03:51:18.203Z,952.9764
2023-05-01T03:52:18.298Z,952.9637
2023-05-01T03:53:20.278Z,952.9630
2023-05-01T03:54:22.282Z,952.9623
2023-05-01T03:55:24.229Z,952.9659
2023-05-01T03:56:26.293Z,952.9677
2023-05-01T03:57:28.186Z,952.9682
2023-05-01T03:58:30.129Z,952.9688
2023-05-01T03:59:32.054Z,952.9653
2023-05-01T04:00:34.011Z,952.9641
2023-05-01T04:01:35.907Z,952.9482
2023-05-01T04:02:37.902Z,952.9435
2023-05-01T04:03:39.917Z,952.9341
2023-05-01T04:04:41.985Z,952.9271
2023-05-01T04:05:43.912Z,952.9258
2023-05-01T04:06:45.920Z,952.9365
2023-05-01T04:07:47.875Z,952.9500
2023-05-01T04:08:49.738Z,952.9506
2023-05-01T04:09:51.911Z,952.9500
2023-05-01T04:10:53.805Z,952.9553
2023-05-01T04:11:55.745Z,952.9553
2023-05-01T04:12:57.648Z,952.9583
2023-05-01T04:13:59.575Z,952.9682
2023-05-01T04:15:01.473Z,952.9782
2023-05-01T04:16:03.486Z,952.9771
2023-05-01T04:17:05.381Z,952.9911
2023-05-01T04:18:07.351Z,952.9982
2023-05-01T04:19:09.292Z,952.9965
2023-05-01T04:20:11.267Z,952.9994
2023-05-01T04:21:13.130Z,952.9924
2023-05-01T04:22:15.047Z,953.0006
2023-05-01T04:23:16.981Z,952.9947
2023-05-01T04:24:19.016Z,953.0006
2023-05-01T04:25:20.918Z,953.0024
2023-05-01T04:26:22.860Z,953.0029
2023-05-01T04:27:24.778Z,953.0012
2023-05-01T04:28:26.716Z,953.0059
2023-05-01T04:29:28.642Z,953.0129
2023-05-01T04:30:30.557Z,953.0253
2023-05-01T04:31:32.461Z,953.0412
2023-05-01T04:32:34.463Z,953.0400
2023-05-01T04:33:36.404Z,953.0529
2023-05-01T04:34:38.258Z,953.0659
2023-05-01T04:35:40.186Z,953.0742
2023-05-01T04:36:42.328Z,953.0853
2023-05-01T04:37:44.239Z,953.0900
2023-05-01T04:38:46.151Z,953.0994
2023-05-01T04:39:48.079Z,953.1064
2023-05-01T04:40:50.043Z,953.1118
2023-05-01T04:41:51.945Z,953.1171
2023-05-01T04:42:53.858Z,953.1300
2023-05-01T04:43:55.769Z,953.1312
2023-05-01T04:44:58.022Z,953.1318
2023-05-01T04:45:59.935Z,953.1459
2023-05-01T04:47:01.935Z,953.1547
2023-05-01T04:48:03.956Z,953.1635
2023-05-01T04:49:05.844Z,953.1676
2023-05-01T04:50:07.767Z,953.1694
2023-05-01T04:51:09.696Z,953.1824
2023-05-01T04:52:11.611Z,953.1876
2023-05-01T04:53:13.573Z,953.1942
2023-05-01T04:54:15.476Z,953.1971
2023-05-01T04:55:17.420Z,953.2041
2023-05-01T04:56:19.311Z,953.2047
2023-05-01T04:57:21.378Z,953.2100
2023-05-01T04:58:23.297Z,953.2153
2023-05-01T04:59:25.206Z,953.2164
2023-05-01T05:00:27.095Z,953.2188
2023-05-01T05:01:29.100Z,953.2200
2023-05-01T05:02:31.047Z,953.2188
2023-05-01T05:03:33.116Z,953.2394
2023-05-01T05:04:35.370Z,953.2506
2023-05-01T05:05:37.268Z,953.2612
2023-05-01T05:06:39.256Z,953.2682
2023-05-01T05:07:41.109Z,953.2776
2023-05-01T05:08:43.070Z,953.2706
2023-05-01T05:09:44.971Z,953.2689
2023-05-01T05:10:46.928Z,953.2753
2023-05-01T05:11:48.861Z,953.2765
2023-05-01T05:12:50.794Z,953.2906
2023-05-01T05:13:52.713Z,953.3029
2023-05-01T05:14:54.840Z,953.3171
2023-05-01T05:15:56.797Z,953.3300
2023-05-01T05:16:58.937Z,953.3312
2023-05-01T05:18:00.973Z,953.3371
2023-05-01T05:19:02.919Z,953.3412
2023-05-01T05:20:04.834Z,953.3459
2023-05-01T05:21:06.774Z,953.3477
2023-05-01T05:22:08.701Z,953.3547
2023-05-01T05:23:10.618Z,953.3547
2023-05-01T05:24:12.521Z,953.3600
2023-05-01T05:25:14.470Z,953.3641
2023-05-01T05:26:16.416Z,953.3842
2023-05-01T05:27:18.320Z,953.3782
2023-05-01T05:28:20.244Z,953.3753
2023-05-01T05:29:22.206Z,953.3618
2023-05-01T05:30:24.120Z,953.3376
2023-05-01T05:31:26.058Z,953.3206
2023-05-01T05:32:28.088Z,953.3218
2023-05-01T05:33:30.020Z,953.3271
2023-05-01T05:34:31.968Z,953.3259
2023-05-01T05:35:33.868Z,953.3276
2023-05-01T05:36:35.813Z,953.3464
2023-05-01T05:37:37.756Z,953.3500
2023-05-01T05:38:39.707Z,953.3618
2023-05-01T05:39:41.638Z,953.3635
2023-05-01T05:40:43.542Z,953.3782
2023-05-01T05:41:45.470Z,953.3853
2023-05-01T05:42:47.398Z,953.3912
2023-05-01T05:43:49.360Z,953.3976
2023-05-01T05:44:51.260Z,953.4135
2023-05-01T05:45:53.275Z,953.4188
2023-05-01T05:46:55.195Z,953.4077
2023-05-01T05:47:57.178Z,953.4153
2023-05-01T05:48:59.106Z,953.4211
2023-05-01T05:50:01.060Z,953.4347
2023-05-01T05:51:02.956Z,953.4394
2023-05-01T05:52:04.884Z,953.4465
2023-05-01T05:53:06.791Z,953.4447
2023-05-01T05:54:08.761Z,953.4371
2023-05-01T05:55:10.654Z,953.4500
2023-05-01T05:56:12.622Z,953.4670
2023-05-01T05:57:14.767Z,953.4623
2023-05-01T05:58:16.715Z,953.4553
2023-05-01T05:59:18.624Z,953.4500
2023-05-01T06:00:20.526Z,953.4547
2023-05-01T06:01:22.433Z,953.4494
2023-05-01T06:02:24.488Z,953.4335
2023-05-01T06:03:26.751Z,953.4406
2023-05-01T06:04:28.849Z,953.4371
2023-05-01T06:05:30.823Z,953.4371
2023-05-01T06:06:32.773Z,953.4482
2023-05-01T06:07:35.021Z,953.4489
2023-05-01T06:08:36.922Z,953.4471
2023-05-01T06:09:38.885Z,953.4400
2023-05-01T06:10:40.800Z,953.4494
2023-05-01T06:11:43.038Z,953.4453
2023-05-01T06:12:53.728Z,953.4412
2023-05-01T06:13:45.576Z,953.4467
2023-05-01T06:14:47.517Z,953.4471
2023-05-01T06:15:49.424Z,953.4400
2023-05-01T06:16:51.372Z,953.4406
2023-05-01T06:17:53.427Z,953.4359
2023-05-01T06:18:55.372Z,953.4258
2023-05-01T06:19:57.732Z,953.4100
2023-05-01T06:20:59.834Z,953.4065
2023-05-01T06:22:01.733Z,953.4117
2023-05-01T06:23:03.698Z,953.4064
2023-05-01T06:24:05.601Z,953.4035
2023-05-01T06:25:07.493Z,953.4077
2023-05-01T06:26:09.424Z,953.4182
2023-05-01T06:27:11.335Z,953.4124
2023-05-01T06:28:13.245Z,953.4265
2023-05-01T06:29:15.189Z,953.4312
2023-05-01T06:30:17.166Z,953.4335
2023-05-01T06:31:19.162Z,953.4382
2023-05-01T06:32:21.105Z,953.4353
2023-05-01T06:33:23.008Z,953.4388
2023-05-01T06:34:24.954Z,953.4347
2023-05-01T06:35:26.866Z,953.4329
2023-05-01T06:36:28.786Z,953.4241
2023-05-01T06:37:30.698Z,953.4329
2023-05-01T06:38:32.653Z,953.4329
2023-05-01T06:39:34.876Z,953.4306
2023-05-01T06:40:36.776Z,953.4424
2023-05-01T06:41:38.747Z,953.4400
2023-05-01T06:42:40.671Z,953.4306
2023-05-01T06:43:42.605Z,953.4141
2023-05-01T06:44:44.523Z,953.4229
2023-05-01T06:45:46.477Z,953.4347
2023-05-01T06:46:48.669Z,953.4382
2023-05-01T06:47:50.602Z,953.4359
2023-05-01T06:48:52.502Z,953.4412
2023-05-01T06:49:54.591Z,953.4394
2023-05-01T06:50:56.545Z,953.4353
2023-05-01T06:51:58.494Z,953.4536
2023-05-01T06:53:00.393Z,953.4612
2023-05-01T06:54:02.338Z,953.4729
2023-05-01T06:55:02.397Z,953.4812
2023-05-01T06:56:04.337Z,953.4847
2023-05-01T06:57:06.296Z,953.4953
2023-05-01T06:58:22.430Z,953.4994
2023-05-01T06:59:08.761Z,953.5020
2023-05-01T07:00:10.929Z,953.4911
2023-05-01T07:01:12.864Z,953.5071
2023-05-01T07:02:14.905Z,953.5223
2023-05-01T07:03:16.876Z,953.5377
2023-05-01T07:04:18.792Z,953.5382
2023-05-01T07:05:20.714Z,953.5594
2023-05-01T07:06:22.776Z,953.5624
2023-05-01T07:07:24.918Z,953.5724
2023-05-01T07:08:26.827Z,953.5718
2023-05-01T07:09:28.772Z,953.5818
2023-05-01T07:10:30.799Z,953.5889
2023-05-01T07:11:32.702Z,953.5859
2023-05-01T07:12:34.621Z,953.5947
2023-05-01T07:13:36.556Z,953.6035
2023-05-01T07:14:38.471Z,953.6000
2023-05-01T07:15:40.396Z,953.6188
2023-05-01T07:16:42.358Z,953.6312
2023-05-01T07:17:44.340Z,953.6294
2023-05-01T07:18:46.229Z,953.6400
2023-05-01T07:19:48.182Z,953.6371
2023-05-01T07:20:50.091Z,953.6265
2023-05-01T07:21:52.027Z,953.6365
2023-05-01T07:22:53.971Z,953.6371
2023-05-01T07:23:55.870Z,953.6312
2023-05-01T07:24:57.805Z,953.6371
2023-05-01T07:25:59.723Z,953.6300
2023-05-01T07:27:01.645Z,953.6423
2023-05-01T07:28:03.546Z,953.6447
2023-05-01T07:29:05.468Z,953.6518
2023-05-01T07:30:07.390Z,953.6483
2023-05-01T07:31:09.398Z,953.6418
2023-05-01T07:32:11.529Z,953.6441
2023-05-01T07:33:13.624Z,953.6465
2023-05-01T07:34:15.559Z,953.6447
2023-05-01T07:35:17.505Z,953.6382
2023-05-01T07:36:19.394Z,953.6465
2023-05-01T07:37:21.346Z,953.6453
2023-05-01T07:38:23.270Z,953.6436
2023-05-01T07:39:25.186Z,953.6365
2023-05-01T07:40:27.157Z,953.6376
2023-05-01T07:41:29.077Z,953.6494
2023-05-01T07:42:31.015Z,953.6506
2023-05-01T07:43:32.911Z,953.6559
2023-05-01T07:44:34.860Z,953.6635
2023-05-01T07:45:36.790Z,953.6676
2023-05-01T07:46:38.818Z,953.6547
2023-05-01T07:47:41.057Z,953.6711
2023-05-01T07:48:42.985Z,953.6724
2023-05-01T07:49:44.943Z,953.6706
2023-05-01T07:50:46.853Z,953.6865
2023-05-01T07:51:48.796Z,953.6824
2023-05-01T07:52:50.746Z,953.6871
2023-05-01T07:53:52.677Z,953.6700
2023-05-01T07:54:54.583Z,953.6788
2023-05-01T07:55:56.487Z,953.6771
2023-05-01T07:56:58.409Z,953.7000
2023-05-01T07:58:00.385Z,953.7135
2023-05-01T07:59:02.277Z,953.7465
2023-05-01T08:00:06.193Z,953.7217
2023-05-01T08:01:04.495Z,953.7131
2023-05-01T08:02:06.492Z,953.7036
2023-05-01T08:03:08.699Z,953.7635
2023-05-01T08:04:10.892Z,953.7411
2023-05-01T08:05:12.891Z,953.7576
2023-05-01T08:06:14.819Z,953.7529
2023-05-01T08:07:16.751Z,953.7647
2023-05-01T08:08:18.656Z,953.7700
2023-05-01T08:09:20.601Z,953.7723
2023-05-01T08:10:22.544Z,953.7723
2023-05-01T08:11:24.476Z,953.7706
2023-05-01T08:12:26.428Z,953.8182
2023-05-01T08:13:28.320Z,953.8088
2023-05-01T08:14:30.281Z,953.8071
2023-05-01T08:15:32.192Z,953.8318
2023-05-01T08:16:34.161Z,953.8271
2023-05-01T08:17:36.116Z,953.8435
2023-05-01T08:18:38.040Z,953.8329
2023-05-01T08:19:39.964Z,953.8658
2023-05-01T08:20:41.915Z,953.8600
2023-05-01T08:21:43.839Z,953.8624
2023-05-01T08:22:45.775Z,953.8835
2023-05-01T08:23:47.693Z,953.8889
2023-05-01T08:24:49.786Z,953.8741
2023-05-01T08:25:51.734Z,953.8517
2023-05-01T08:26:53.783Z,953.8859
2023-05-01T08:27:55.722Z,953.8618
2023-05-01T08:28:57.654Z,953.8824
2023-05-01T08:29:59.597Z,953.8871
2023-05-01T08:31:01.632Z,953.8741
2023-05-01T08:32:03.562Z,953.8865
2023-05-01T08:33:05.644Z,953.8900
2023-05-01T08:34:07.624Z,953.8947
2023-05-01T08:35:09.532Z,953.9147
2023-05-01T08:36:11.471Z,953.9159
2023-05-01T08:37:13.810Z,953.8806
2023-05-01T08:38:15.789Z,953.9017
2023-05-01T08:39:17.738Z,953.8983
2023-05-01T08:40:19.694Z,953.8959
2023-05-01T08:41:21.652Z,953.8694
2023-05-01T08:42:23.586Z,953.8965
2023-05-01T08:43:25.505Z,953.8859
2023-05-01T08:44:25.618Z,953.8744
2023-05-01T08:45:27.512Z,953.8635
2023-05-01T08:46:29.497Z,953.8782
2023-05-01T08:47:31.446Z,953.9188
2023-05-01T08:48:33.399Z,953.9194
2023-05-01T08:49:36.229Z,953.9300
2023-05-01T08:50:38.011Z,953.9360
2023-05-01T08:51:39.939Z,953.9294
2023-05-01T08:52:42.628Z,953.9082
2023-05-01T08:53:44.494Z,953.9412
2023-05-01T08:55:49.668Z,953.9177
2023-05-01T08:55:49.668Z,953.9012
2023-05-01T08:56:51.582Z,953.9318
2023-05-01T08:57:53.520Z,953.9177
2023-05-01T08:58:55.236Z,953.9400
2023-05-01T08:59:57.322Z,953.9418
2023-05-01T09:00:59.321Z,953.9771
2023-05-01T09:02:01.545Z,953.9871
2023-05-01T09:03:03.646Z,953.9677
2023-05-01T09:04:05.610Z,953.9882
2023-05-01T09:05:07.541Z,953.9730
2023-05-01T09:06:09.552Z,953.9712
2023-05-01T09:07:11.505Z,953.9865
2023-05-01T09:08:13.457Z,953.9735
2023-05-01T09:09:15.383Z,953.9818
2023-05-01T09:10:17.370Z,954.0129
2023-05-01T09:11:19.279Z,954.0135
2023-05-01T09:12:21.543Z,954.0476
2023-05-01T09:13:23.471Z,954.0288
2023-05-01T09:14:25.425Z,954.0076
2023-05-01T09:15:27.327Z,953.9994
2023-05-01T09:16:29.285Z,954.0259
2023-05-01T09:17:31.282Z,953.9929
2023-05-01T09:18:33.203Z,953.9724
2023-05-01T09:19:35.147Z,953.9694
2023-05-01T09:20:37.068Z,953.9677
2023-05-01T09:21:39.012Z,953.9594
2023-05-01T09:22:40.944Z,954.0323
2023-05-01T09:23:42.909Z,954.0464
2023-05-01T09:24:44.866Z,954.0447
2023-05-01T09:25:46.811Z,954.0171
2023-05-01T09:26:48.772Z,954.0400
2023-05-01T09:27:50.753Z,954.0412
2023-05-01T09:28:52.635Z,954.0576
2023-05-01T09:29:54.917Z,954.0347
2023-05-01T09:30:56.994Z,954.0241
2023-05-01T09:31:59.039Z,954.0353
2023-05-01T09:33:01.065Z,954.0330
2023-05-01T09:34:03.047Z,954.0471
2023-05-01T09:35:05.054Z,953.9982
2023-05-01T09:36:07.022Z,954.0123
2023-05-01T09:37:09.015Z,954.0624
2023-05-01T09:38:11.040Z,954.0712
2023-05-01T09:39:13.028Z,954.0776
2023-05-01T09:40:14.985Z,954.0871
2023-05-01T09:41:16.963Z,954.1071
2023-05-01T09:42:18.978Z,954.0941
2023-05-01T09:43:20.980Z,954.0800
2023-05-01T09:44:22.940Z,954.0776
2023-05-01T09:45:24.897Z,954.1294
2023-05-01T09:46:26.968Z,954.1082
2023-05-01T09:47:28.963Z,954.0782
2023-05-01T09:48:33.287Z,954.0753
2023-05-01T09:49:33.183Z,954.0919
2023-05-01T09:50:35.200Z,954.1359
2023-05-01T09:51:37.717Z,954.1323
2023-05-01T09:52:39.675Z,954.1194
2023-05-01T09:53:41.675Z,954.1000
2023-05-01T09:54:43.626Z,954.1276
2023-05-01T09:55:45.614Z,954.1306
2023-05-01T09:56:47.625Z,954.1365
2023-05-01T09:57:49.566Z,954.1053
2023-05-01T09:58:51.612Z,954.0906
2023-05-01T09:59:53.704Z,954.0500
2023-05-01T10:00:55.827Z,954.0412
2023-05-01T10:01:57.829Z,954.0447
2023-05-01T10:03:00.001Z,954.0694
2023-05-01T10:04:02.043Z,954.0930
2023-05-01T10:05:04.069Z,954.0300
2023-05-01T10:06:06.121Z,954.0447
2023-05-01T10:07:08.124Z,954.0317
2023-05-01T10:08:10.097Z,954.0559
2023-05-01T10:09:12.291Z,954.1165
2023-05-01T10:10:14.228Z,954.0994
2023-05-01T10:11:16.324Z,954.0871
2023-05-01T10:12:18.371Z,954.0312
2023-05-01T10:13:20.313Z,954.0317
2023-05-01T10:15:26.607Z,954.0265
2023-05-01T10:15:26.607Z,954.0250
2023-05-01T10:16:25.379Z,954.0750
2023-05-01T10:17:27.478Z,954.0624
2023-05-01T10:18:29.415Z,953.9706
2023-05-01T10:19:31.373Z,953.9960
2023-05-01T10:20:33.612Z,954.0394
2023-05-01T10:21:35.567Z,954.0187
2023-05-01T10:22:37.413Z,954.0787
2023-05-01T10:23:39.340Z,954.0994
2023-05-01T10:24:41.348Z,954.0859
2023-05-01T10:25:43.287Z,954.0729
2023-05-01T10:26:45.295Z,954.0212
2023-05-01T10:27:47.233Z,954.0759
2023-05-01T10:28:49.250Z,954.0535
2023-05-01T10:29:51.509Z,954.0406
2023-05-01T10:30:53.468Z,954.0012
2023-05-01T10:31:55.531Z,953.9988
2023-05-01T10:32:57.597Z,954.0759
2023-05-01T10:33:59.820Z,954.0335
2023-05-01T10:35:01.829Z,954.0577
2023-05-01T10:36:03.771Z,954.0553
2023-05-01T10:37:05.726Z,954.0412
2023-05-01T10:38:07.699Z,953.9918
2023-05-01T10:39:09.671Z,953.9906
2023-05-01T10:40:11.688Z,953.9706
2023-05-01T10:41:13.624Z,953.9900
2023-05-01T10:42:15.588Z,953.9976
2023-05-01T10:43:17.563Z,953.9988
2023-05-01T10:44:19.536Z,954.0776
2023-05-01T10:45:21.533Z,954.0441
2023-05-01T10:46:23.557Z,954.0394
2023-05-01T10:47:25.606Z,953.9882
2023-05-01T10:48:27.619Z,953.9730
2023-05-01T10:49:29.620Z,953.9565
2023-05-01T10:50:31.573Z,953.9706
2023-05-01T10:51:33.542Z,953.9670
2023-05-01T10:52:37.053Z,953.9630
2023-05-01T10:53:39.030Z,953.9376
2023-05-01T10:54:41.153Z,953.9435
2023-05-01T10:55:43.113Z,953.9753
2023-05-01T10:56:45.057Z,953.9489
2023-05-01T10:57:47.035Z,953.9712
2023-05-01T10:58:48.994Z,953.9442
2023-05-01T10:59:50.964Z,953.9447
2023-05-01T11:00:52.906Z,953.9447
2023-05-01T11:01:54.906Z,953.9012
2023-05-01T11:02:57.030Z,953.8947
2023-05-01T11:03:59.074Z,953.8659
2023-05-01T11:05:01.198Z,953.8247
2023-05-01T11:06:03.448Z,953.8441
2023-05-01T11:07:05.595Z,953.8483
2023-05-01T11:08:07.622Z,953.8494
2023-05-01T11:09:09.683Z,953.8483
2023-05-01T11:10:11.637Z,953.8641
2023-05-01T11:11:13.624Z,953.8894
2023-05-01T11:12:15.594Z,953.9229
2023-05-01T11:13:17.554Z,953.8318
2023-05-01T11:14:19.527Z,953.9047
2023-05-01T11:15:21.486Z,953.8712
2023-05-01T11:16:23.507Z,953.8918
2023-05-01T11:17:25.478Z,953.8865
2023-05-01T11:18:27.410Z,953.9012
2023-05-01T11:19:29.549Z,953.8671
2023-05-01T11:20:31.476Z,953.8618
2023-05-01T11:21:33.445Z,953.8641
2023-05-01T11:22:35.365Z,953.8512
2023-05-01T11:23:37.311Z,953.8229
2023-05-01T11:24:39.392Z,953.8611
2023-05-01T11:25:41.449Z,953.8159
2023-05-01T11:26:43.379Z,953.8423
2023-05-01T11:27:45.333Z,953.8359
2023-05-01T11:28:47.337Z,953.8259
2023-05-01T11:29:49.983Z,953.8564
2023-05-01T11:30:51.982Z,953.8430
2023-05-01T11:31:53.940Z,953.8336
2023-05-01T11:32:55.954Z,953.8212
2023-05-01T11:33:57.869Z,953.8229
2023-05-01T11:34:59.992Z,953.8206
2023-05-01T11:36:02.436Z,953.8159
2023-05-01T11:37:04.461Z,953.8329
2023-05-01T11:38:06.364Z,953.8388
2023-05-01T11:39:08.412Z,953.8300
2023-05-01T11:40:10.264Z,953.8267
2023-05-01T11:41:12.291Z,953.7941
2023-05-01T11:42:14.344Z,953.7988
2023-05-01T11:43:16.321Z,953.8329
2023-05-01T11:44:18.276Z,953.8488
2023-05-01T11:45:20.226Z,953.8553
2023-05-01T11:46:22.274Z,953.8671
2023-05-01T11:47:24.305Z,953.8611
2023-05-01T11:48:26.241Z,953.8876
2023-05-01T11:49:28.274Z,953.8577
2023-05-01T11:50:30.308Z,953.8624
2023-05-01T11:51:32.331Z,953.8282
2023-05-01T11:52:34.278Z,953.8530
2023-05-01T11:53:36.218Z,953.8129
2023-05-01T11:54:38.189Z,953.8188
2023-05-01T11:55:40.489Z,953.7971
2023-05-01T11:56:42.472Z,953.8630
2023-05-01T11:57:44.582Z,953.9224
2023-05-01T11:58:46.607Z,953.9194
2023-05-01T11:59:48.586Z,953.9012
2023-05-01T12:00:50.578Z,953.9394
2023-05-01T12:01:52.573Z,953.8983
2023-05-01T12:02:54.594Z,953.9041
2023-05-01T12:03:56.649Z,953.9400
2023-05-01T12:04:59.052Z,953.8871
2023-05-01T12:06:01.183Z,953.9112
2023-05-01T12:07:03.168Z,953.9182